Terminal Aerodrome Forecast
Issued by NWS

Home | Current Version | Previous Version | Text Only | Print | Product List | Glossary Off
Versions: 1 2 3 4 5 6 7 8 9 10 11 12 13 14 15 16 17 18 19 20 21 22 23 24 25 26 27 28 29 30 31 32 33 34 35 36 37 38

000
FTUS45 KBOU 062001 AAA
TAFBJC
TAF AMD
KBJC 062001Z 0620/0718 05007KT P6SM VCSH SCT008 BKN012
      TEMPO 0620/0622 5SM -RA BR BKN008
     FM062200 07007KT P6SM VCSH BKN020 BKN045
      TEMPO 0622/0701 3SM -RA BR SCT020
     FM070100 10006KT P6SM VCSH BKN035 BKN050
     FM071000 14008KT P6SM VCSH SCT030 BKN050=

USA.gov is the U.S. government's official web portal to all federal, state and local government web resources and services.